Bakersfield, CA (93307)

12:54 PM PDT on August 27, 2014 (GMT -0700)
MesoWest | Change Station
CLOSE
Current Station
Personal Weather Station
Location: Bakersfield, CA
Elevation: 382 ft
Nearby Weather Stations

Elev 382 ft 35.33 °N, 119.00 °W | Updated 10 days ago

Clear
Clear
96 °F
Feels Like 96 °F
N
7
Wind Variable Wind from West
Gusts 8 mph

Today
High -- | Low -- °F
--% Chance of Precip.
Yesterday
High -- | Low -- °F
Precip. -- in
6:24 AM 7:29 PM
Waxing Crescent, 5% visible
Pressure 30.01 in
Visibility 10.0 miles
Clouds Clear
Dew Point 52 °F
Humidity 22%
Rainfall -9999.00 in
Snow Depth Not available.
UV 10 out of 12
Pollen 8.60 out of 12
PM2.5 Moderate
Flu Activity Not available.
METAR KBFL 271854Z 23004KT 10SM CLR 31/08 A3003 RMK AO2 SLP162 T03060078

More Conditions Fewer Conditions

Pressure 30.01 in
Visibility 10.0 miles
Clouds Clear
Dew Point 52 °F
Humidity 22%
Rainfall -9999.00 in
Snow Depth Not available.
UV 10 out of 12
Pollen 8.60 out of 12
PM2.5 Moderate
Flu Activity Not available.
METAR KBFL 271854Z 23004KT 10SM CLR 31/08 A3003 RMK AO2 SLP162 T03060078

More Conditions Fewer Conditions

10-Day Weather Forecast

Almanac

Astronomy

Aug. 27, 2014 Rise Set
Actual Time 6:24 AM PDT 7:29 PM PDT
Civil Twilight 5:58 AM PDT 7:55 PM PDT
Nautical Twilight 5:27 AM PDT 8:26 PM PDT
Astronomical Twilight 4:54 AM PDT 8:58 PM PDT
Moon 8:19 AM PDT 8:31 PM PDT
Length of Visible Light 13h 57m
Length of Day
13h 04m
Tomorrow will be 2m 5s shorter.
Waxing Crescent, 5% of the Moon is Illuminated
Today
Waxing Crescent
Sep 2
First Quarter
Sep 8
Full
Sep 15
Last Quarter
Sep 24
New

Today's Extremes

State Highs State Lows

Community

WunderPhotos

Upload Photos

1,747,771 photos uploaded!

Nearby

Air Quality

  Air Quality AQ Index Pollutant
Yesterday Moderate
OZONE
Yesterday Moderate
PM2.5
Current Moderate
PM2.5
Wednesday Moderate
OZONE
Thursday Moderate
OZONE
Friday Moderate
OZONE
Saturday Moderate
OZONE
Sunday Moderate
OZONE

Snow Depth

Station Depth Elevation
Leavitt Lake 0 in 9400 ft
Leavitt Meadows 0 in 7200 ft
Summit Meadow 0 in 9122 ft
Monitor Pass 0 in 8350 ft
Fallen Leaf 0 in 6300 ft

Earthquake Activity

City Distance Mag. Time & Date
San Fernando, California 80 miles 2.5 4:57 AM PDT
2014-08-26
San Pedro, California 118 miles 3.2 7:50 PM PDT
2014-08-24
Minimum magnitude displayed is 2.5.

Coastal Water Temperatures

Place Temperature
No Stations Reporting

Nearby Weather Stations